KMSN/MSN METAR and TAF weather

Enter ICAO airport designator
Station Type Date Time Source
KMSN METAR 2019/11/13 01:53 UTC NOAA

KMSN 130153Z 19008KT 10SM SCT240 M11/M18 A3033 RMK AO2 SLP290 T11061183


Station Type Date Time Source
KMSN Decoded METAR 2019/11/13 01:53 UTC NOAA

MADISON DANE COUNTY RGNL, WI, United States (KMSN) 43-08N 89-21W 261M
Nov 12, 2019 - 08:53 PM EST / 2019.11.13 0153 UTC
Wind: from the S (190 degrees) at 9 MPH (8 KT):0
Visibility: 10 mile(s):0
Sky conditions: partly cloudy
Temperature: 12.9 F (-10.6 C)
Windchill: 1 F (-17 C):1
Dew Point: -0.9 F (-18.3 C)
Relative Humidity: 53%
Pressure (altimeter): 30.33 in. Hg (1027 hPa)
ob: KMSN 130153Z 19008KT 10SM SCT240 M11/M18 A3033 RMK AO2 SLP290 T11061183
cycle: 2

Station Type Date Time Source
KMSN TAF 2019/11/13 02:30 UTC NOAA

TAF
AMD KMSN 130228Z 1302/1324 19008KT P6SM SCT240
FM130900 19010G19KT P6SM BKN180
FM132000 20011G20KT 4SM -SN OVC030
FM132200 21010G19KT 2SM -SN OVC025

Example: see airport list